createdAt,value
2018-01-05T00:01:14.344Z,1.03
2018-01-05T00:03:41.917Z,1.01
2018-01-05T00:06:09.483Z,0.98
2018-01-05T00:08:37.071Z,0.98
2018-01-05T00:11:04.641Z,0.96
2018-01-05T00:13:32.231Z,0.96
2018-01-05T00:15:59.848Z,0.94
2018-01-05T00:18:27.438Z,0.92
2018-01-05T00:20:55.014Z,0.94
2018-01-05T00:23:22.626Z,0.92
2018-01-05T00:25:50.178Z,0.86
2018-01-05T00:28:17.751Z,0.84
2018-01-05T00:30:45.415Z,0.78
2018-01-05T00:33:12.988Z,0.82
2018-01-05T00:35:40.564Z,0.86
2018-01-05T00:38:08.185Z,0.89
2018-01-05T00:40:35.783Z,0.92
2018-01-05T00:43:03.361Z,0.97
2018-01-05T00:45:30.976Z,0.98
2018-01-05T00:47:58.569Z,0.99
2018-01-05T00:50:26.162Z,0.97
2018-01-05T00:52:53.777Z,0.95
2018-01-05T00:55:21.370Z,0.92
2018-01-05T00:57:48.948Z,0.91
2018-01-05T01:00:16.546Z,0.91
2018-01-05T01:02:44.119Z,0.89
2018-01-05T01:05:11.706Z,0.87
2018-01-05T01:07:39.330Z,0.85
2018-01-05T01:10:06.916Z,0.78
2018-01-05T01:12:34.504Z,0.76
2018-01-05T01:15:02.189Z,0.72
2018-01-05T01:17:29.772Z,0.72
2018-01-05T01:19:57.347Z,0.68
2018-01-05T01:22:24.966Z,0.65
2018-01-05T01:24:52.555Z,0.57
2018-01-05T01:27:20.136Z,0.60
2018-01-05T01:29:47.763Z,0.61
2018-01-05T01:32:15.333Z,0.59
2018-01-05T01:34:42.903Z,0.60
2018-01-05T01:37:10.653Z,0.61
2018-01-05T01:39:38.202Z,0.65
2018-01-05T01:42:05.752Z,0.66
2018-01-05T01:44:33.368Z,0.66
2018-01-05T01:47:01.971Z,0.67
2018-01-05T01:49:29.561Z,0.66
2018-01-05T01:51:57.197Z,0.64
2018-01-05T01:54:24.776Z,0.60
2018-01-05T01:56:52.344Z,0.52
2018-01-05T01:59:19.963Z,0.46
2018-01-05T02:01:47.527Z,0.38
2018-01-05T02:04:15.105Z,0.37
2018-01-05T02:06:42.729Z,0.40
2018-01-05T02:09:10.308Z,0.39
2018-01-05T02:11:37.889Z,0.33
2018-01-05T02:14:05.510Z,0.33
2018-01-05T02:16:33.097Z,0.32
2018-01-05T02:19:00.706Z,0.30
2018-01-05T02:21:28.313Z,0.23
2018-01-05T02:23:56.118Z,0.20
2018-01-05T02:26:23.702Z,0.14
2018-01-05T02:28:51.636Z,0.12
2018-01-05T02:31:19.223Z,0.16
2018-01-05T02:33:46.815Z,0.21
2018-01-05T02:36:14.431Z,0.12
2018-01-05T02:38:42.021Z,0.14
2018-01-05T02:41:09.593Z,0.10
2018-01-05T02:43:37.196Z,0.15
2018-01-05T02:46:04.787Z,0.16
2018-01-05T02:48:32.353Z,0.12
2018-01-05T02:50:59.967Z,0.08
2018-01-05T02:53:27.584Z,0.05
2018-01-05T02:55:55.463Z,-0.01
2018-01-05T02:58:23.096Z,-0.02
2018-01-05T03:00:50.683Z,-0.03
2018-01-05T03:03:18.270Z,-0.02
2018-01-05T03:05:45.899Z,-0.08
2018-01-05T03:08:13.490Z,-0.05
2018-01-05T03:10:41.219Z,-0.05
2018-01-05T03:13:08.830Z,-0.09
2018-01-05T03:15:36.427Z,-0.04
2018-01-05T03:18:04.003Z,0.00
2018-01-05T03:20:31.632Z,0.04
2018-01-05T03:22:59.210Z,0.03
2018-01-05T03:25:26.786Z,0.07
2018-01-05T03:27:54.399Z,0.05
2018-01-05T03:30:21.990Z,0.06
2018-01-05T03:32:49.565Z,0.07
2018-01-05T03:35:17.177Z,0.02
2018-01-05T03:37:44.752Z,-0.04
2018-01-05T03:40:12.320Z,-0.11
2018-01-05T03:42:39.941Z,-0.07
2018-01-05T03:45:07.512Z,-0.11
2018-01-05T03:47:35.080Z,-0.25
2018-01-05T03:50:02.779Z,-0.32
2018-01-05T03:52:30.368Z,-0.39
2018-01-05T03:54:57.978Z,-0.41
2018-01-05T03:57:25.622Z,-0.44
2018-01-05T03:59:53.189Z,-0.49
2018-01-05T04:02:20.778Z,-0.61
2018-01-05T04:04:48.394Z,-0.74
2018-01-05T04:07:15.979Z,-0.76
2018-01-05T04:09:43.565Z,-0.76
2018-01-05T04:12:11.181Z,-0.80
2018-01-05T04:14:38.790Z,-0.72
2018-01-05T04:17:06.383Z,-0.78
2018-01-05T04:19:34.007Z,-0.74
2018-01-05T04:22:01.629Z,-0.76
2018-01-05T04:24:29.216Z,-0.77
2018-01-05T04:26:56.828Z,-0.79
2018-01-05T04:29:24.406Z,-0.80
2018-01-05T04:31:51.998Z,-0.83
2018-01-05T04:34:19.611Z,-0.82
2018-01-05T04:36:47.187Z,-0.82
2018-01-05T04:39:14.765Z,-0.83
2018-01-05T04:41:42.407Z,-0.83
2018-01-05T04:44:09.993Z,-0.83
2018-01-05T04:46:37.577Z,-0.80
2018-01-05T04:49:05.193Z,-0.81
2018-01-05T04:51:32.796Z,-0.81
2018-01-05T04:54:00.389Z,-0.79
2018-01-05T04:56:28.100Z,-0.83
2018-01-05T04:58:55.683Z,-0.86
2018-01-05T05:01:23.265Z,-0.88
2018-01-05T05:03:50.866Z,-0.95
2018-01-05T05:06:18.444Z,-0.99
2018-01-05T05:08:46.085Z,-1.03
2018-01-05T05:11:13.721Z,-1.12
2018-01-05T05:13:41.345Z,-1.22
2018-01-05T05:16:09.065Z,-1.26
2018-01-05T05:18:36.693Z,-1.31
2018-01-05T05:21:04.294Z,-1.25
2018-01-05T05:23:31.889Z,-1.24
2018-01-05T05:25:59.542Z,-1.21
2018-01-05T05:28:27.129Z,-1.23
2018-01-05T05:30:54.810Z,-1.29
2018-01-05T05:33:22.424Z,-1.33
2018-01-05T05:35:49.998Z,-1.31
2018-01-05T05:38:17.571Z,-1.27
2018-01-05T05:40:45.188Z,-1.18
2018-01-05T05:43:12.773Z,-1.18
2018-01-05T05:45:40.369Z,-1.19
2018-01-05T05:48:07.982Z,-1.16
2018-01-05T05:50:35.564Z,-1.13
2018-01-05T05:53:03.155Z,-1.14
2018-01-05T05:55:30.789Z,-1.11
2018-01-05T05:57:58.377Z,-1.09
2018-01-05T06:00:25.979Z,-1.04
2018-01-05T06:02:53.620Z,-0.96
2018-01-05T06:05:21.175Z,-0.80
2018-01-05T06:07:48.754Z,-0.72
2018-01-05T06:10:16.383Z,-0.76
2018-01-05T06:12:43.956Z,-0.74
2018-01-05T06:15:11.538Z,-0.94
2018-01-05T06:17:39.146Z,-0.93
2018-01-05T06:20:06.756Z,-0.91
2018-01-05T06:22:34.351Z,-0.91
2018-01-05T06:25:01.995Z,-0.90
2018-01-05T06:27:29.577Z,-0.86
2018-01-05T06:29:57.189Z,-0.70
2018-01-05T06:32:24.843Z,0.11
2018-01-05T06:34:52.462Z,0.24
2018-01-05T06:37:20.061Z,0.33
2018-01-05T06:39:47.685Z,0.58
2018-01-05T06:42:15.267Z,1.07
2018-01-05T06:44:42.835Z,1.46
2018-01-05T06:47:10.486Z,1.79
2018-01-05T06:49:38.074Z,2.28
2018-01-05T06:52:05.660Z,2.82
2018-01-05T06:54:33.290Z,3.24
2018-01-05T06:57:00.867Z,3.60
2018-01-05T06:59:28.437Z,4.36
2018-01-05T07:01:56.060Z,5.02
2018-01-05T07:04:23.635Z,5.75
2018-01-05T07:06:51.232Z,6.46
2018-01-05T07:09:18.896Z,7.15
2018-01-05T07:11:46.480Z,7.75
2018-01-05T07:14:14.055Z,8.19
2018-01-05T07:16:41.679Z,8.30
2018-01-05T07:19:09.254Z,8.73
2018-01-05T07:21:36.813Z,9.38
2018-01-05T07:24:04.434Z,9.56
2018-01-05T07:26:32.008Z,9.53
2018-01-05T07:28:59.580Z,9.40
2018-01-05T07:31:27.189Z,9.38
2018-01-05T07:33:54.781Z,9.51
2018-01-05T07:36:22.351Z,9.45
2018-01-05T07:38:50.007Z,9.89
2018-01-05T07:41:17.584Z,10.20
2018-01-05T07:43:45.186Z,10.11
2018-01-05T07:46:12.815Z,10.44
2018-01-05T07:48:40.442Z,10.67
2018-01-05T07:51:08.037Z,10.73
2018-01-05T07:53:35.656Z,10.78
2018-01-05T07:56:03.250Z,10.86
2018-01-05T07:58:30.902Z,11.16
2018-01-05T08:00:58.521Z,11.46
2018-01-05T08:03:26.105Z,11.69
2018-01-05T08:05:53.702Z,11.71
2018-01-05T08:08:21.307Z,11.70
2018-01-05T08:10:48.889Z,12.00
2018-01-05T08:13:16.464Z,12.02
2018-01-05T08:15:44.078Z,12.57
2018-01-05T08:18:11.675Z,12.12
2018-01-05T08:20:39.261Z,12.45
2018-01-05T08:23:06.889Z,12.66
2018-01-05T08:25:34.473Z,12.60
2018-01-05T08:28:02.069Z,13.04
2018-01-05T08:30:29.739Z,13.28
2018-01-05T08:32:57.364Z,13.12
2018-01-05T08:35:24.952Z,13.40
2018-01-05T08:37:52.587Z,13.47
2018-01-05T08:40:20.191Z,13.60
2018-01-05T08:42:47.852Z,14.33
2018-01-05T08:45:15.484Z,14.31
2018-01-05T08:47:43.123Z,14.89
2018-01-05T08:50:10.720Z,14.94
2018-01-05T08:52:38.332Z,14.70
2018-01-05T08:55:05.939Z,14.65
2018-01-05T08:57:33.540Z,15.17
2018-01-05T09:00:01.219Z,15.10
2018-01-05T09:02:28.820Z,14.98
2018-01-05T09:04:56.406Z,15.44
2018-01-05T09:07:24.030Z,15.54
2018-01-05T09:09:51.620Z,15.42
2018-01-05T09:12:19.199Z,15.76
2018-01-05T09:14:46.803Z,16.13
2018-01-05T09:17:14.427Z,16.39
2018-01-05T09:19:42.875Z,16.48
2018-01-05T09:22:10.510Z,16.57
2018-01-05T09:24:38.093Z,16.78
2018-01-05T09:27:05.664Z,16.71
2018-01-05T09:29:33.297Z,17.06
2018-01-05T09:32:02.271Z,17.39
2018-01-05T09:34:29.858Z,17.54
2018-01-05T09:36:57.480Z,17.25
2018-01-05T09:39:25.064Z,17.27
2018-01-05T09:41:52.648Z,17.89
2018-01-05T09:44:20.263Z,18.11
2018-01-05T09:46:47.848Z,18.53
2018-01-05T09:49:15.427Z,18.56
2018-01-05T09:51:43.069Z,18.70
2018-01-05T09:54:10.767Z,18.80
2018-01-05T09:56:38.369Z,18.45
2018-01-05T09:59:05.996Z,18.48
2018-01-05T10:01:33.576Z,19.43
2018-01-05T10:04:01.145Z,19.31
2018-01-05T10:06:28.782Z,19.53
2018-01-05T10:08:56.362Z,19.81
2018-01-05T10:11:23.966Z,19.81
2018-01-05T10:13:51.621Z,20.67
2018-01-05T10:16:19.222Z,20.78
2018-01-05T10:18:46.814Z,20.97
2018-01-05T10:21:14.458Z,20.85
2018-01-05T10:23:42.053Z,21.39
2018-01-05T10:26:09.642Z,21.13
2018-01-05T10:28:37.256Z,20.82
2018-01-05T10:31:04.838Z,20.62
2018-01-05T10:33:32.405Z,21.21
2018-01-05T10:36:00.028Z,21.36
2018-01-05T10:38:27.614Z,21.36
2018-01-05T10:40:55.268Z,20.94
2018-01-05T10:43:22.930Z,20.77
2018-01-05T10:45:50.521Z,21.22
2018-01-05T10:48:18.145Z,21.77
2018-01-05T10:50:45.755Z,22.02
2018-01-05T10:53:13.334Z,21.58
2018-01-05T10:55:40.993Z,21.65
2018-01-05T10:58:08.605Z,21.22
2018-01-05T11:00:36.203Z,21.42
2018-01-05T11:03:03.810Z,21.03
2018-01-05T11:05:31.470Z,20.40
2018-01-05T11:07:59.088Z,19.84
2018-01-05T11:10:26.741Z,19.05
2018-01-05T11:12:54.359Z,18.17
2018-01-05T11:15:21.941Z,18.03
2018-01-05T11:17:49.509Z,18.07
2018-01-05T11:20:17.123Z,17.56
2018-01-05T11:22:44.696Z,17.80
2018-01-05T11:25:12.265Z,17.56
2018-01-05T11:27:39.982Z,17.42
2018-01-05T11:30:07.559Z,17.21
2018-01-05T11:32:35.134Z,16.97
2018-01-05T11:35:02.741Z,16.41
2018-01-05T11:37:30.312Z,15.90
2018-01-05T11:39:57.877Z,16.31
2018-01-05T11:42:25.494Z,16.49
2018-01-05T11:44:53.063Z,16.49
2018-01-05T11:47:20.632Z,16.08
2018-01-05T11:49:48.240Z,16.29
2018-01-05T11:52:15.812Z,16.31
2018-01-05T11:54:43.409Z,16.34
2018-01-05T11:57:11.068Z,16.42
2018-01-05T11:59:38.641Z,16.50
2018-01-05T12:02:06.205Z,16.43
2018-01-05T12:04:33.829Z,16.40
2018-01-05T12:07:01.398Z,16.49
2018-01-05T12:09:28.980Z,16.46
2018-01-05T12:11:56.600Z,16.38
2018-01-05T12:14:24.224Z,16.29
2018-01-05T12:16:51.807Z,16.27
2018-01-05T12:19:19.415Z,16.21
2018-01-05T12:21:47.003Z,16.17
2018-01-05T12:24:14.592Z,16.15
2018-01-05T12:26:42.227Z,15.99
2018-01-05T12:29:09.813Z,15.98
2018-01-05T12:31:37.370Z,15.82
2018-01-05T12:34:04.995Z,15.74
2018-01-05T12:36:32.567Z,15.68
2018-01-05T12:39:00.139Z,15.49
2018-01-05T12:41:27.747Z,15.64
2018-01-05T12:43:55.350Z,15.59
2018-01-05T12:46:22.947Z,15.58
2018-01-05T12:48:50.626Z,15.49
2018-01-05T12:51:18.205Z,15.53
2018-01-05T12:53:45.777Z,15.52
2018-01-05T12:56:13.390Z,15.39
2018-01-05T12:58:41.004Z,15.32
2018-01-05T13:01:08.591Z,15.32
2018-01-05T13:03:36.272Z,15.38
2018-01-05T13:06:03.838Z,15.40
2018-01-05T13:08:31.416Z,15.36
2018-01-05T13:10:59.028Z,15.26
2018-01-05T13:13:26.598Z,15.02
2018-01-05T13:15:54.169Z,14.93
2018-01-05T13:18:21.818Z,14.93
2018-01-05T13:20:49.391Z,14.77
2018-01-05T13:23:16.966Z,14.65
2018-01-05T13:25:44.580Z,14.47
2018-01-05T13:28:12.343Z,14.28
2018-01-05T13:30:39.950Z,14.21
2018-01-05T13:33:07.579Z,14.13
2018-01-05T13:35:35.168Z,14.07
2018-01-05T13:38:02.739Z,14.03
2018-01-05T13:40:30.360Z,13.93
2018-01-05T13:42:57.917Z,13.95
2018-01-05T13:45:25.541Z,13.85
2018-01-05T13:47:53.180Z,13.75
2018-01-05T13:50:20.781Z,13.64
2018-01-05T13:52:48.362Z,13.57
2018-01-05T13:55:15.980Z,13.54
2018-01-05T13:57:43.559Z,13.47
2018-01-05T14:00:11.239Z,13.44
2018-01-05T14:02:38.864Z,13.41
2018-01-05T14:05:06.520Z,13.28
2018-01-05T14:07:35.172Z,13.15
2018-01-05T14:10:02.816Z,13.03
2018-01-05T14:12:30.440Z,12.96
2018-01-05T14:14:58.052Z,12.85
2018-01-05T14:17:26.419Z,12.79
2018-01-05T14:19:53.991Z,12.64
2018-01-05T14:22:21.654Z,12.54
2018-01-05T14:24:49.262Z,12.47
2018-01-05T14:27:16.866Z,12.40
2018-01-05T14:29:44.466Z,12.42
2018-01-05T14:32:12.195Z,12.36
2018-01-05T14:34:39.793Z,12.24
2018-01-05T14:37:07.386Z,12.07
2018-01-05T14:39:35.011Z,12.01
2018-01-05T14:42:02.614Z,11.96
2018-01-05T14:44:30.223Z,11.87
2018-01-05T14:46:57.850Z,11.82
2018-01-05T14:49:25.433Z,11.76
2018-01-05T14:51:53.042Z,11.70
2018-01-05T14:54:20.680Z,11.53
2018-01-05T14:56:48.470Z,11.41
2018-01-05T14:59:16.057Z,11.37
2018-01-05T15:01:43.689Z,11.28
2018-01-05T15:04:11.280Z,11.14
2018-01-05T15:06:38.866Z,11.24
2018-01-05T15:09:06.499Z,11.21
2018-01-05T15:11:34.086Z,11.17
2018-01-05T15:14:01.673Z,11.10
2018-01-05T15:16:29.300Z,11.03
2018-01-05T15:18:56.895Z,11.06
2018-01-05T15:21:24.474Z,10.96
2018-01-05T15:23:52.112Z,10.95
2018-01-05T15:26:19.679Z,10.96
2018-01-05T15:28:47.234Z,10.96
2018-01-05T15:31:14.864Z,10.90
2018-01-05T15:33:42.457Z,10.79
2018-01-05T15:36:10.043Z,10.76
2018-01-05T15:38:37.676Z,10.74
2018-01-05T15:41:05.261Z,10.77
2018-01-05T15:43:32.827Z,10.67
2018-01-05T15:46:00.543Z,10.65
2018-01-05T15:48:28.175Z,10.66
2018-01-05T15:50:55.805Z,10.60
2018-01-05T15:53:23.469Z,10.55
2018-01-05T15:55:51.048Z,10.52
2018-01-05T15:58:18.629Z,10.46
2018-01-05T16:00:46.322Z,10.47
2018-01-05T16:03:13.895Z,10.46
2018-01-05T16:05:41.461Z,10.36
2018-01-05T16:08:09.117Z,10.30
2018-01-05T16:10:36.749Z,10.28
2018-01-05T16:13:04.472Z,10.26
2018-01-05T16:15:32.124Z,10.24
2018-01-05T16:17:59.729Z,10.20
2018-01-05T16:20:27.296Z,10.29
2018-01-05T16:22:54.900Z,10.23
2018-01-05T16:25:22.472Z,10.30
2018-01-05T16:27:50.042Z,10.30
2018-01-05T16:30:17.672Z,10.28
2018-01-05T16:32:45.242Z,10.42
2018-01-05T16:35:12.863Z,10.49
2018-01-05T16:37:40.498Z,10.55
2018-01-05T16:40:08.091Z,10.53
2018-01-05T16:42:35.655Z,10.50
2018-01-05T16:45:03.259Z,10.51
2018-01-05T16:47:30.831Z,10.47
2018-01-05T16:49:58.441Z,10.40
2018-01-05T16:52:26.075Z,10.32
2018-01-05T16:54:53.673Z,10.31
2018-01-05T16:57:21.243Z,10.36
2018-01-05T16:59:48.861Z,10.33
2018-01-05T17:02:16.448Z,10.29
2018-01-05T17:04:44.100Z,10.39
2018-01-05T17:07:11.714Z,10.31
2018-01-05T17:09:39.311Z,10.28
2018-01-05T17:12:06.926Z,10.28
2018-01-05T17:14:34.615Z,10.17
2018-01-05T17:17:02.175Z,10.08
2018-01-05T17:19:29.768Z,10.06
2018-01-05T17:21:57.418Z,10.05
2018-01-05T17:24:24.994Z,10.07
2018-01-05T17:26:52.566Z,10.01
2018-01-05T17:29:20.220Z,10.06
2018-01-05T17:31:47.788Z,9.99
2018-01-05T17:34:15.358Z,9.98
2018-01-05T17:36:42.973Z,10.00
2018-01-05T17:39:10.632Z,9.95
2018-01-05T17:41:38.204Z,9.91
2018-01-05T17:44:05.823Z,10.00
2018-01-05T17:46:33.415Z,9.90
2018-01-05T17:49:01.002Z,9.92
2018-01-05T17:51:28.623Z,9.91
2018-01-05T17:53:56.193Z,9.77
2018-01-05T17:56:23.757Z,9.63
2018-01-05T17:58:51.361Z,9.55
2018-01-05T18:01:18.922Z,9.52
2018-01-05T18:03:46.489Z,9.56
2018-01-05T18:06:14.116Z,9.67
2018-01-05T18:08:41.686Z,9.73
2018-01-05T18:11:09.364Z,9.83
2018-01-05T18:13:37.180Z,9.79
2018-01-05T18:16:04.770Z,9.83
2018-01-05T18:18:32.422Z,9.87
2018-01-05T18:21:00.139Z,9.92
2018-01-05T18:23:27.734Z,9.86
2018-01-05T18:25:55.293Z,9.87
2018-01-05T18:28:22.895Z,9.88
2018-01-05T18:30:50.489Z,9.87
2018-01-05T18:33:18.101Z,9.89
2018-01-05T18:35:45.719Z,9.87
2018-01-05T18:38:13.299Z,9.86
2018-01-05T18:40:40.914Z,9.93
2018-01-05T18:43:08.537Z,9.77
2018-01-05T18:45:36.170Z,9.74
2018-01-05T18:48:03.754Z,9.53
2018-01-05T18:50:31.316Z,9.45
2018-01-05T18:52:58.959Z,9.53
2018-01-05T18:55:26.538Z,9.58
2018-01-05T18:57:54.159Z,9.63
2018-01-05T19:00:21.734Z,9.56
2018-01-05T19:02:49.301Z,9.51
2018-01-05T19:05:16.917Z,9.57
2018-01-05T19:07:44.524Z,9.47
2018-01-05T19:10:12.096Z,9.35
2018-01-05T19:12:39.689Z,9.37
2018-01-05T19:15:07.247Z,9.36
2018-01-05T19:17:34.848Z,9.49
2018-01-05T19:20:02.461Z,9.52
2018-01-05T19:22:30.060Z,9.55
2018-01-05T19:24:57.652Z,9.48
2018-01-05T19:27:25.265Z,9.30
2018-01-05T19:29:52.846Z,9.11
2018-01-05T19:32:20.440Z,8.84
2018-01-05T19:34:48.068Z,8.62
2018-01-05T19:37:15.649Z,8.34
2018-01-05T19:39:43.254Z,8.17
2018-01-05T19:42:10.938Z,7.97
2018-01-05T19:44:38.537Z,7.87
2018-01-05T19:47:06.129Z,7.92
2018-01-05T19:49:33.750Z,7.81
2018-01-05T19:52:01.308Z,7.57
2018-01-05T19:54:28.918Z,7.53
2018-01-05T19:56:56.510Z,7.48
2018-01-05T19:59:24.100Z,7.64
2018-01-05T20:01:51.681Z,7.59
2018-01-05T20:04:19.349Z,7.48
2018-01-05T20:06:46.964Z,7.27
2018-01-05T20:09:14.585Z,7.41
2018-01-05T20:11:42.206Z,7.41
2018-01-05T20:14:09.954Z,7.45
2018-01-05T20:16:37.704Z,7.19
2018-01-05T20:19:06.554Z,7.19
2018-01-05T20:21:34.150Z,7.07
2018-01-05T20:24:02.836Z,7.18
2018-01-05T20:26:34.839Z,7.03
2018-01-05T20:29:06.027Z,7.11
2018-01-05T20:31:33.828Z,6.66
2018-01-05T20:34:01.404Z,6.33
2018-01-05T20:36:28.956Z,6.00
2018-01-05T20:38:56.568Z,5.91
2018-01-05T20:41:24.292Z,6.01
2018-01-05T20:43:51.919Z,5.94
2018-01-05T20:46:19.475Z,5.74
2018-01-05T20:48:47.048Z,5.61
2018-01-05T20:51:14.634Z,5.44
2018-01-05T20:53:42.191Z,5.32
2018-01-05T20:56:09.768Z,5.24
2018-01-05T20:58:37.364Z,5.08
2018-01-05T21:01:04.936Z,4.98
2018-01-05T21:03:32.601Z,4.92
2018-01-05T21:06:00.195Z,4.80
2018-01-05T21:08:27.762Z,4.76
2018-01-05T21:10:55.341Z,4.69
2018-01-05T21:13:22.922Z,4.57
2018-01-05T21:15:50.530Z,4.48
2018-01-05T21:18:18.096Z,4.40
2018-01-05T21:20:45.682Z,4.33
2018-01-05T21:23:13.341Z,4.28
2018-01-05T21:25:41.088Z,4.19
2018-01-05T21:28:08.738Z,4.18
2018-01-05T21:30:36.342Z,4.08
2018-01-05T21:33:03.904Z,4.06
2018-01-05T21:35:31.467Z,3.96
2018-01-05T21:37:59.088Z,3.85
2018-01-05T21:40:26.690Z,3.80
2018-01-05T21:42:54.289Z,3.76
2018-01-05T21:45:21.922Z,3.71
2018-01-05T21:47:49.499Z,3.69
2018-01-05T21:50:17.078Z,3.66
2018-01-05T21:52:44.699Z,3.67
2018-01-05T21:55:12.260Z,3.68
2018-01-05T21:57:39.834Z,3.69
2018-01-05T22:00:07.511Z,3.54
2018-01-05T22:02:35.089Z,3.64
2018-01-05T22:05:02.673Z,3.60
2018-01-05T22:07:30.317Z,3.48
2018-01-05T22:09:57.893Z,3.60
2018-01-05T22:12:25.467Z,3.48
2018-01-05T22:14:53.089Z,3.41
2018-01-05T22:17:20.653Z,3.38
2018-01-05T22:19:48.222Z,3.32
2018-01-05T22:22:15.856Z,3.23
2018-01-05T22:24:43.446Z,3.16
2018-01-05T22:27:11.007Z,3.10
2018-01-05T22:29:38.636Z,3.00
2018-01-05T22:32:06.221Z,2.86
2018-01-05T22:34:33.784Z,2.86
2018-01-05T22:37:01.397Z,2.84
2018-01-05T22:39:28.963Z,2.81
2018-01-05T22:41:56.526Z,2.77
2018-01-05T22:44:24.117Z,2.69
2018-01-05T22:46:51.684Z,2.66
2018-01-05T22:49:19.264Z,2.63
2018-01-05T22:51:46.884Z,2.64
2018-01-05T22:54:14.465Z,2.58
2018-01-05T22:56:42.049Z,2.54
2018-01-05T22:59:09.665Z,2.50
2018-01-05T23:01:37.262Z,2.45
2018-01-05T23:04:04.858Z,2.44
2018-01-05T23:06:32.461Z,2.38
2018-01-05T23:09:00.041Z,2.36
2018-01-05T23:11:27.636Z,2.29
2018-01-05T23:13:55.231Z,2.27
2018-01-05T23:16:22.859Z,2.26
2018-01-05T23:18:50.433Z,2.21
2018-01-05T23:21:18.018Z,2.04
2018-01-05T23:23:45.633Z,2.08
2018-01-05T23:26:13.257Z,2.23
2018-01-05T23:28:40.839Z,2.32
2018-01-05T23:31:08.440Z,2.39
2018-01-05T23:33:36.096Z,2.30
2018-01-05T23:36:03.685Z,2.31
2018-01-05T23:38:31.280Z,2.25
2018-01-05T23:40:58.867Z,2.27
2018-01-05T23:43:26.454Z,2.27
2018-01-05T23:45:54.061Z,2.30
2018-01-05T23:48:21.642Z,2.36
2018-01-05T23:50:49.229Z,2.41
2018-01-05T23:53:16.844Z,2.43
2018-01-05T23:55:44.426Z,2.41
2018-01-05T23:58:12.045Z,2.42
